Time;durP1;ratioP1;P1;durP2;ratioP2;P2;SDS_P1;SDS_P2;PMS_P1;PMS_P2;Temp;Humidity;BMP_temperature;BMP_pressure;BME280_temperature;BME280_humidity;BME280_pressure;Samples;Min_cycle;Max_cycle;Signal;HPM_P1;HPM_P2
2022/01/14 00:01:11;;;;;;;16.80;10.32;;;;;;;-6.07;76.36;100876.19;10151151;29;20556;-70
2022/01/14 00:06:12;;;;;;;17.75;9.38;;;;;;;-6.05;76.15;100860.59;10191970;29;20036;-70
2022/01/14 00:11:18;;;;;;;17.65;9.75;;;;;;;-6.67;75.92;100748.84;10211553;29;20056;-70
2022/01/14 00:16:19;;;;;;;18.00;9.35;;;;;;;-6.07;76.63;100839.97;10212895;29;20145;-69
2022/01/14 00:21:20;;;;;;;18.15;8.70;;;;;;;-6.20;76.67;100799.88;10212359;29;20504;-70
2022/01/14 00:31:43;;;;;;;12.90;7.32;;;;;;;-5.86;76.34;100798.69;10211432;29;20044;-69
2022/01/14 00:36:45;;;;;;;15.93;8.18;;;;;;;-7.64;76.56;100495.47;10211434;29;20048;-70
2022/01/14 00:41:46;;;;;;;13.32;7.00;;;;;;;-6.04;76.62;100766.59;10210847;29;20134;-71
2022/01/14 00:46:48;;;;;;;13.75;5.93;;;;;;;-6.67;77.19;100645.50;10195006;29;20135;-69
2022/01/14 00:51:49;;;;;;;11.63;6.18;;;;;;;-6.53;76.93;100657.09;10141990;29;20058;-69
2022/01/14 00:57:15;;;;;;;12.15;6.38;;;;;;;-5.69;76.71;100772.25;10147386;29;20536;-69
2022/01/14 01:02:16;;;;;;;11.75;5.68;;;;;;;-5.60;76.86;100754.66;10161761;29;20417;-69
2022/01/14 01:07:18;;;;;;;11.20;5.78;;;;;;;-5.58;76.84;100747.69;10171588;29;20046;-70
2022/01/14 01:12:38;;;;;;;11.82;5.65;;;;;;;-6.57;76.50;100603.84;10172895;29;20055;-72
2022/01/14 01:17:40;;;;;;;9.63;5.30;;;;;;;-5.75;77.35;100750.03;10171345;29;20052;-70
2022/01/14 01:22:41;;;;;;;11.57;5.47;;;;;;;-6.03;77.35;100688.09;10171865;29;20044;-69
2022/01/14 01:27:44;;;;;;;9.73;5.63;;;;;;;-5.92;77.25;100727.34;10171388;29;20044;-69
2022/01/14 01:32:48;;;;;;;11.40;4.50;;;;;;;-6.39;77.60;100649.72;10171415;29;20123;-69
2022/01/14 01:37:49;;;;;;;10.15;5.22;;;;;;;-6.30;77.39;100657.16;10171144;29;20480;-69
2022/01/14 01:42:52;;;;;;;12.10;5.55;;;;;;;-6.02;77.57;100690.63;10170558;29;20040;-72
2022/01/14 01:47:54;;;;;;;9.60;4.72;;;;;;;-6.00;77.18;100681.09;10176596;29;20052;-69
2022/01/14 01:52:56;;;;;;;10.10;4.50;;;;;;;-6.13;76.98;100660.88;10179109;29;20119;-69
2022/01/14 01:57:57;;;;;;;9.70;5.13;;;;;;;-6.83;77.49;100543.56;10178421;29;20444;-69
2022/01/14 02:03:02;;;;;;;10.93;5.93;;;;;;;-6.10;77.24;100655.59;10178031;29;20048;-69
2022/01/14 02:08:03;;;;;;;11.85;5.55;;;;;;;-6.20;77.39;100649.91;10176146;29;20516;-70
2022/01/14 02:13:06;;;;;;;11.93;5.85;;;;;;;-6.32;77.28;100634.81;10166108;29;20070;-69
2022/01/14 02:23:16;;;;;;;9.40;5.30;;;;;;;-6.31;77.49;100636.50;10177240;29;20050;-69
2022/01/14 02:28:18;;;;;;;8.65;4.90;;;;;;;-6.37;77.60;100621.22;10176705;29;20048;-69
2022/01/14 02:33:19;;;;;;;8.90;4.53;;;;;;;-7.32;77.78;100457.47;10177887;29;20058;-70
2022/01/14 02:38:20;;;;;;;8.15;4.13;;;;;;;-6.47;77.59;100584.50;10175639;29;20044;-69
2022/01/14 02:43:21;;;;;;;10.23;4.90;;;;;;;-6.44;77.80;100590.41;10176940;29;20039;-69
2022/01/14 02:48:25;;;;;;;9.05;4.68;;;;;;;-7.33;77.79;100422.19;10198056;29;20044;-69
2022/01/14 02:58:42;;;;;;;8.57;4.97;;;;;;;-6.26;78.00;100594.06;10176274;29;20043;-69
2022/01/14 03:03:45;;;;;;;11.37;5.80;;;;;;;-6.42;77.85;100541.25;10173892;29;20132;-69
2022/01/14 03:08:46;;;;;;;14.15;6.25;;;;;;;-6.32;78.20;100546.94;10174167;29;20047;-69
2022/01/14 03:13:47;;;;;;;12.55;7.20;;;;;;;-6.46;77.94;100519.00;10173411;29;20115;-69
2022/01/14 03:18:51;;;;;;;12.13;7.05;;;;;;;-6.41;78.52;100505.91;10173211;29;20564;-70
2022/01/14 03:24:14;;;;;;;12.32;6.57;;;;;;;-6.43;78.49;100503.41;10173841;29;20572;-70
2022/01/14 03:29:15;;;;;;;10.95;6.22;;;;;;;-6.53;78.45;100479.59;10167430;28;20059;-69
2022/01/14 03:34:16;;;;;;;12.48;7.07;;;;;;;-6.10;78.76;100516.81;10149082;29;20132;-69
2022/01/14 03:39:18;;;;;;;11.82;5.93;;;;;;;-6.03;77.97;100496.72;10135444;29;20052;-69
2022/01/14 03:44:19;;;;;;;13.80;6.45;;;;;;;-6.70;77.92;100353.66;10135446;29;20036;-70
2022/01/14 03:49:20;;;;;;;14.35;7.47;;;;;;;-5.77;77.96;100504.28;10134767;29;20036;-69
2022/01/14 03:54:22;;;;;;;13.05;7.18;;;;;;;-5.68;78.27;100487.53;10134597;29;20070;-69
2022/01/14 03:59:22;;;;;;;13.00;7.50;;;;;;;-5.51;78.15;100500.63;10133562;29;20509;-69
2022/01/14 04:04:23;;;;;;;11.73;6.70;;;;;;;-5.74;78.04;100442.06;10132716;29;20044;-69
2022/01/14 04:09:24;;;;;;;13.38;6.93;;;;;;;-5.63;78.47;100440.75;10133820;29;20067;-69
2022/01/14 04:19:27;;;;;;;16.48;6.72;;;;;;;-5.35;78.46;100450.84;10163050;29;20499;-70
2022/01/14 04:24:28;;;;;;;16.13;6.50;;;;;;;-5.34;78.35;100455.09;10174751;29;20079;-69
2022/01/14 04:29:29;;;;;;;13.45;6.15;;;;;;;-5.46;78.54;100419.38;10172354;29;20078;-70
2022/01/14 04:34:30;;;;;;;16.58;6.93;;;;;;;-6.25;78.72;100269.16;10174366;29;20052;-68
2022/01/14 04:39:31;;;;;;;12.50;6.68;;;;;;;-6.39;78.43;100225.81;10192510;29;20052;-69
2022/01/14 04:44:32;;;;;;;12.90;6.78;;;;;;;-6.75;78.01;100151.50;10171974;29;20058;-70
2022/01/14 04:49:32;;;;;;;18.20;7.30;;;;;;;-5.30;78.54;100384.97;10172803;29;20068;-70
2022/01/14 04:54:35;;;;;;;11.57;6.43;;;;;;;-5.14;78.53;100398.13;10172054;29;20096;-70
2022/01/14 04:59:36;;;;;;;16.80;6.63;;;;;;;-5.34;78.78;100365.31;10172866;29;20416;-69
2022/01/14 05:04:36;;;;;;;12.90;6.80;;;;;;;-6.05;78.98;100230.38;10172351;29;20052;-70
2022/01/14 05:09:42;;;;;;;11.25;6.30;;;;;;;-5.16;78.93;100355.91;10172367;29;20131;-69
2022/01/14 05:14:43;;;;;;;11.70;6.10;;;;;;;-5.05;78.89;100353.69;10172254;29;20043;-69
2022/01/14 05:19:43;;;;;;;12.00;6.30;;;;;;;-4.95;78.58;100330.78;10172321;29;20055;-70
2022/01/14 05:24:45;;;;;;;10.90;6.22;;;;;;;-5.48;78.25;100212.34;10179130;29;20055;-70
2022/01/14 05:29:45;;;;;;;11.98;6.57;;;;;;;-5.32;78.33;100213.34;10179474;29;20048;-70
2022/01/14 05:34:48;;;;;;;10.93;5.93;;;;;;;-4.47;78.50;100315.59;10179381;29;20044;-70
2022/01/14 05:39:49;;;;;;;12.48;6.57;;;;;;;-4.44;78.06;100302.50;10178526;29;20131;-70
2022/01/14 05:44:51;;;;;;;11.38;5.72;;;;;;;-4.19;78.26;100297.81;10179220;29;20127;-70
2022/01/14 05:49:52;;;;;;;9.82;6.13;;;;;;;-4.09;77.83;100297.34;10178237;29;20048;-70
2022/01/14 05:54:53;;;;;;;14.32;5.88;;;;;;;-4.72;77.72;100169.03;10178669;29;20508;-70
2022/01/14 05:59:54;;;;;;;10.30;5.60;;;;;;;-3.83;77.82;100289.06;10178167;29;20520;-71
2022/01/14 06:04:55;;;;;;;11.80;5.53;;;;;;;-4.44;77.45;100158.13;10177666;29;20044;-72
2022/01/14 06:09:56;;;;;;;13.32;6.57;;;;;;;-3.80;77.46;100234.44;10179118;29;20087;-71
2022/01/14 06:14:57;;;;;;;10.90;6.25;;;;;;;-3.38;77.72;100263.41;10177235;29;20042;-71
2022/01/14 06:19:57;;;;;;;10.88;5.97;;;;;;;-3.21;77.31;100256.41;10177103;29;20094;-71
2022/01/14 06:25:00;;;;;;;15.18;6.18;;;;;;;-3.04;77.33;100267.66;10177669;29;20449;-71
2022/01/14 06:30:06;;;;;;;11.32;5.88;;;;;;;-3.47;77.12;100166.91;10176944;29;20120;-71
2022/01/14 06:35:13;;;;;;;10.90;5.78;;;;;;;-2.84;76.74;100232.75;10176192;29;20099;-71
2022/01/14 06:40:15;;;;;;;10.30;6.00;;;;;;;-2.80;76.58;100203.91;10176694;29;20043;-71
2022/01/14 06:45:16;;;;;;;10.07;6.35;;;;;;;-3.23;76.49;100083.34;10176296;29;20043;-71
2022/01/14 06:50:18;;;;;;;11.30;5.68;;;;;;;-2.71;76.18;100108.13;10176587;29;20130;-71
2022/01/14 06:55:19;;;;;;;13.05;5.28;;;;;;;-2.31;75.78;100130.84;10176799;29;20040;-71
2022/01/14 07:00:21;;;;;;;8.98;4.68;;;;;;;-1.91;75.45;100131.06;10175492;29;20052;-72
2022/01/14 07:05:22;;;;;;;11.55;5.28;;;;;;;-1.71;74.48;100118.56;10176025;29;20088;-72
2022/01/14 07:10:24;;;;;;;9.13;5.15;;;;;;;-1.55;74.37;100105.44;10175906;29;20068;-72
2022/01/14 07:15:25;;;;;;;8.32;5.00;;;;;;;-1.57;73.51;100086.47;10175845;29;20084;-74
2022/01/14 07:20:26;;;;;;;11.73;4.78;;;;;;;-2.28;73.05;99926.88;10175975;29;20076;-71
2022/01/14 07:25:27;;;;;;;7.70;4.18;;;;;;;-1.09;73.02;100084.25;10174741;29;20135;-71
2022/01/14 07:30:27;;;;;;;11.15;5.03;;;;;;;-1.62;71.86;99967.75;10175069;29;20645;-71
2022/01/14 07:35:28;;;;;;;10.68;5.88;;;;;;;-1.46;71.57;99972.81;10174967;29;20051;-71
2022/01/14 07:40:29;;;;;;;8.73;5.53;;;;;;;-1.54;70.10;99956.84;10175379;29;20158;-71
2022/01/14 07:45:30;;;;;;;18.67;6.35;;;;;;;-1.30;70.29;99975.25;10173748;29;20068;-72
2022/01/14 07:50:31;;;;;;;11.15;6.50;;;;;;;-1.01;69.98;99980.31;10173838;29;20509;-71
2022/01/14 07:55:32;;;;;;;17.08;7.32;;;;;;;-0.66;69.89;100029.22;10172548;29;20095;-72
2022/01/14 08:00:35;;;;;;;13.00;6.82;;;;;;;-0.51;70.46;100018.59;10173997;29;20036;-71
2022/01/14 08:05:36;;;;;;;15.33;6.67;;;;;;;-0.97;69.38;99900.94;10173220;29;20067;-72
2022/01/14 08:10:37;;;;;;;14.18;7.25;;;;;;;-0.12;69.75;100003.72;10173908;29;20084;-72
2022/01/14 08:15:38;;;;;;;12.93;7.38;;;;;;;-0.76;69.28;99869.94;10172749;29;20055;-72
2022/01/14 08:20:38;;;;;;;12.88;7.00;;;;;;;-0.09;69.77;99948.69;10173782;29;20051;-75
2022/01/14 08:25:40;;;;;;;12.15;6.55;;;;;;;0.21;69.39;99969.13;10173366;29;20048;-73
2022/01/14 08:30:40;;;;;;;10.90;6.68;;;;;;;0.20;69.17;99943.94;10173127;29;20456;-73
2022/01/14 08:35:42;;;;;;;12.82;6.68;;;;;;;0.06;68.83;99889.28;10172862;29;20104;-73
2022/01/14 08:40:43;;;;;;;14.48;7.63;;;;;;;0.49;68.45;99948.00;10173471;29;20068;-74
2022/01/14 08:45:44;;;;;;;16.40;7.55;;;;;;;0.45;68.73;99911.63;10173680;29;20519;-74
2022/01/14 08:50:45;;;;;;;10.02;6.47;;;;;;;0.26;69.15;99860.84;10172733;29;20044;-74
2022/01/14 08:55:46;;;;;;;12.23;6.65;;;;;;;0.48;68.56;99880.97;10175832;29;20138;-74
2022/01/14 09:00:49;;;;;;;11.25;6.10;;;;;;;0.33;69.06;99856.81;10179938;29;20048;-74
2022/01/14 09:05:49;;;;;;;11.25;6.43;;;;;;;0.54;68.90;99873.53;10180599;29;20043;-74
2022/01/14 09:10:50;;;;;;;11.75;6.28;;;;;;;-0.24;68.86;99709.59;10179476;29;20067;-74
2022/01/14 09:15:51;;;;;;;14.57;6.43;;;;;;;0.20;68.93;99776.75;10179472;29;20074;-75
2022/01/14 09:20:52;;;;;;;11.18;6.47;;;;;;;0.56;69.02;99837.63;10180044;29;20048;-73
2022/01/14 09:25:54;;;;;;;14.70;7.30;;;;;;;0.48;68.76;99813.03;10180142;29;20131;-73
2022/01/14 09:30:55;;;;;;;11.52;6.95;;;;;;;0.10;69.17;99730.59;10179544;29;20051;-73
2022/01/14 09:35:56;;;;;;;11.63;6.88;;;;;;;0.63;70.00;99807.50;10179217;29;20051;-74
2022/01/14 09:40:59;;;;;;;11.32;6.63;;;;;;;0.61;70.64;99805.94;10178952;29;20044;-73
2022/01/14 09:46:00;;;;;;;17.33;7.25;;;;;;;0.64;71.28;99759.47;10179009;29;20055;-76
2022/01/14 09:51:01;;;;;;;10.95;6.70;;;;;;;0.07;71.24;99621.97;10179905;29;20134;-74
2022/01/14 09:56:03;;;;;;;11.70;6.50;;;;;;;0.84;71.06;99713.50;10177877;29;20043;-74
2022/01/14 10:01:08;;;;;;;11.40;6.05;;;;;;;0.17;70.76;99564.59;10177951;29;20048;-74
2022/01/14 10:06:09;;;;;;;9.70;5.72;;;;;;;0.32;70.21;99554.72;10176868;29;20043;-74
2022/01/14 10:11:10;;;;;;;9.55;5.80;;;;;;;1.23;69.98;99671.19;10178057;29;20476;-75
2022/01/14 10:16:11;;;;;;;11.98;6.40;;;;;;;0.93;70.11;99585.56;10177905;29;20497;-74
2022/01/14 10:21:12;;;;;;;11.63;6.05;;;;;;;0.61;70.96;99511.41;10177814;29;20114;-74
2022/01/14 10:26:14;;;;;;;10.88;6.53;;;;;;;1.10;71.27;99588.44;10176850;29;20044;-74
2022/01/14 10:31:15;;;;;;;13.55;6.68;;;;;;;1.13;71.44;99585.56;10177001;29;20473;-74
2022/01/14 10:36:21;;;;;;;12.23;6.90;;;;;;;0.54;72.08;99455.38;10178052;29;20070;-74
2022/01/14 10:41:29;;;;;;;16.30;7.10;;;;;;;1.34;71.94;99528.03;10176519;29;20086;-74
2022/01/14 10:46:30;;;;;;;12.27;6.35;;;;;;;1.72;71.98;99558.00;10176321;29;20047;-74
2022/01/14 10:51:31;;;;;;;10.00;5.97;;;;;;;1.02;71.74;99413.03;10176059;29;20048;-74
2022/01/14 10:56:31;;;;;;;9.65;5.90;;;;;;;1.07;71.82;99370.78;10176361;29;20077;-74
2022/01/14 11:01:33;;;;;;;8.68;5.03;;;;;;;2.00;71.06;99500.59;10176048;29;20526;-73
2022/01/14 11:06:41;;;;;;;13.50;5.97;;;;;;;1.99;71.34;99506.81;10176053;29;20421;-74
2022/01/14 11:11:47;;;;;;;12.02;5.57;;;;;;;1.94;71.56;99474.94;10175978;29;20123;-74
2022/01/14 11:16:48;;;;;;;11.02;6.40;;;;;;;1.55;71.49;99385.81;10175709;29;20056;-74
2022/01/14 11:27:13;;;;;;;9.25;6.07;;;;;;;1.66;70.93;99375.25;10175878;29;20453;-74
2022/01/14 11:32:15;;;;;;;9.43;4.97;;;;;;;2.08;70.45;99411.69;10175078;29;20520;-76
2022/01/14 11:37:30;;;;;;;10.15;5.78;;;;;;;2.18;69.72;99403.84;10175753;29;20051;-74
2022/01/14 11:42:41;;;;;;;8.25;5.13;;;;;;;2.13;69.52;99367.59;10175207;29;20040;-74
2022/01/14 11:47:44;;;;;;;9.02;5.13;;;;;;;2.35;69.91;99365.63;10175026;29;20040;-74
2022/01/14 11:52:47;;;;;;;11.75;5.07;;;;;;;2.37;69.26;99343.56;10173917;29;20052;-74
2022/01/14 11:57:52;;;;;;;8.20;5.05;;;;;;;2.64;68.93;99368.22;10174150;29;20082;-73
2022/01/14 12:02:57;;;;;;;12.63;5.32;;;;;;;2.02;68.71;99228.88;10174172;29;20040;-73
2022/01/14 12:08:05;;;;;;;8.88;5.10;;;;;;;2.98;68.49;99343.13;10175791;29;20431;-75
2022/01/14 12:13:40;;;;;;;8.10;4.60;;;;;;;3.18;67.71;99322.88;10188376;29;20130;-75
2022/01/14 12:19:03;;;;;;;10.65;4.95;;;;;;;3.22;66.93;99304.22;10209532;29;20043;-73
2022/01/14 12:24:18;;;;;;;7.65;4.03;;;;;;;2.92;66.73;99296.47;10207151;29;20048;-77
2022/01/14 12:29:30;;;;;;;5.57;3.55;;;;;;;2.58;67.30;99288.34;10142542;29;20051;-73
2022/01/14 12:34:32;;;;;;;10.00;4.40;;;;;;;2.61;67.47;99309.03;10134263;29;20052;-74
2022/01/14 12:39:35;;;;;;;9.45;3.55;;;;;;;2.49;67.36;99261.19;10142349;29;20044;-74
2022/01/14 12:44:40;;;;;;;8.77;4.43;;;;;;;2.63;67.74;99270.41;10134150;29;20046;-73
2022/01/14 12:49:41;;;;;;;10.75;4.30;;;;;;;2.58;68.07;99253.44;10133096;29;20094;-73
2022/01/14 12:54:46;;;;;;;9.80;4.07;;;;;;;2.60;67.88;99238.38;10133463;29;20135;-72
2022/01/14 12:59:49;;;;;;;10.60;4.65;;;;;;;2.04;67.82;99156.22;10134009;29;20058;-73
2022/01/14 13:04:59;;;;;;;8.88;4.95;;;;;;;2.38;67.97;99221.22;10140090;29;20053;-70
2022/01/14 13:10:06;;;;;;;10.82;4.72;;;;;;;1.62;68.53;99137.47;10169447;29;20461;-70
2022/01/14 13:15:10;;;;;;;9.90;4.95;;;;;;;2.18;69.02;99216.00;10199940;29;20059;-71
2022/01/14 13:20:15;;;;;;;7.05;4.60;;;;;;;1.97;68.52;99212.75;10211420;29;20044;-72
2022/01/14 13:25:20;;;;;;;11.50;5.55;;;;;;;1.77;68.80;99184.00;10208106;29;20516;-71
2022/01/14 13:30:39;;;;;;;;;;;;;;;1.94;70.19;99223.50;10172607;29;20123;-72
2022/01/14 13:35:44;;;;;;;16.50;5.47;;;;;;;0.17;69.37;98958.72;10165291;29;20278;-73
2022/01/14 13:40:58;;;;;;;9.65;4.88;;;;;;;1.25;70.28;99135.53;10161867;29;20040;-73
2022/01/14 13:46:10;;;;;;;6.80;4.22;;;;;;;1.50;70.82;99186.50;10170847;29;20118;-74
2022/01/14 13:51:15;;;;;;;7.13;4.10;;;;;;;0.87;70.43;99087.50;10171306;29;20055;-74
2022/01/14 13:56:17;;;;;;;;;;;;;;;1.41;71.55;99169.00;10172644;29;20044;-72
2022/01/14 14:01:18;;;;;;;10.68;4.43;;;;;;;0.55;71.35;99044.16;10168150;29;20593;-73
2022/01/14 14:06:30;;;;;;;7.50;4.00;;;;;;;1.04;71.59;99118.19;10170824;29;20050;-73
2022/01/14 14:16:38;;;;;;;10.68;4.75;;;;;;;1.11;71.35;99126.34;10169430;29;20104;-72
2022/01/14 14:21:41;;;;;;;9.02;4.60;;;;;;;0.76;71.39;99078.00;10171691;29;20200;-75
2022/01/14 14:26:46;;;;;;;8.27;4.50;;;;;;;1.03;71.21;99094.81;10171812;29;20036;-73
2022/01/14 14:31:48;;;;;;;7.45;4.10;;;;;;;0.94;71.36;99072.91;10172594;29;20044;-73
2022/01/14 14:36:50;;;;;;;7.60;4.50;;;;;;;1.23;70.81;99088.59;10170381;29;20067;-72
2022/01/14 14:41:50;;;;;;;9.18;4.40;;;;;;;1.24;70.63;99097.28;10171203;29;20043;-72
2022/01/14 14:46:52;;;;;;;9.02;3.92;;;;;;;0.50;71.31;98961.91;10173983;29;20131;-72
2022/01/14 14:51:52;;;;;;;9.27;4.82;;;;;;;1.13;71.27;99095.63;10176607;29;20047;-72
2022/01/14 14:56:53;;;;;;;8.77;4.55;;;;;;;0.12;71.22;98924.34;10176630;29;20047;-71
2022/01/14 15:01:55;;;;;;;12.13;5.07;;;;;;;0.93;72.03;99063.44;10175351;29;20454;-72
2022/01/14 15:06:56;;;;;;;8.55;4.50;;;;;;;0.10;72.46;98928.91;10174742;29;20139;-73
2022/01/14 15:11:57;;;;;;;10.15;5.60;;;;;;;0.74;73.00;99038.09;10171447;29;20597;-72
2022/01/14 15:22:05;;;;;;;7.68;4.80;;;;;;;0.54;73.68;99018.13;10172609;29;20119;-72
2022/01/14 15:27:07;;;;;;;9.90;4.97;;;;;;;0.41;73.89;98981.84;10173016;29;20493;-73
2022/01/14 15:32:08;;;;;;;8.45;4.43;;;;;;;0.67;73.77;98997.81;10173636;29;20040;-72
2022/01/14 15:37:09;;;;;;;8.32;4.65;;;;;;;0.81;73.21;99005.22;10170361;29;20051;-71
2022/01/14 15:42:10;;;;;;;8.60;4.40;;;;;;;0.94;73.22;98991.03;10170972;29;20036;-71
2022/01/14 15:47:11;;;;;;;12.88;4.72;;;;;;;0.14;72.65;98846.69;10170825;29;20039;-71
2022/01/14 15:52:12;;;;;;;8.77;4.78;;;;;;;0.73;72.70;98934.50;10171523;29;20043;-72
2022/01/14 15:57:13;;;;;;;8.32;4.60;;;;;;;0.80;72.75;98937.38;10162297;29;20143;-73
2022/01/14 16:02:14;;;;;;;11.40;4.55;;;;;;;0.11;73.19;98820.88;10170172;29;20079;-71
2022/01/14 16:07:17;;;;;;;8.70;4.70;;;;;;;0.76;72.92;98918.56;10159029;29;20079;-72
2022/01/14 16:12:18;;;;;;;9.93;4.78;;;;;;;0.96;73.07;98953.34;10157995;29;20064;-72
2022/01/14 16:17:19;;;;;;;10.00;4.60;;;;;;;0.99;73.74;98923.44;10134362;29;20045;-73
2022/01/14 16:22:20;;;;;;;8.93;4.30;;;;;;;0.96;73.02;98901.03;10134221;29;20045;-73
2022/01/14 16:27:21;;;;;;;8.60;4.97;;;;;;;0.81;73.13;98860.63;10168210;29;20075;-70
2022/01/14 16:32:24;;;;;;;14.82;4.68;;;;;;;0.93;72.85;98874.31;10171291;29;20068;-70
2022/01/14 16:37:26;;;;;;;13.73;4.10;;;;;;;1.07;73.48;98882.53;10175202;29;20500;-73
2022/01/14 16:42:28;;;;;;;9.02;4.20;;;;;;;0.56;73.09;98789.72;10210783;29;20485;-69
2022/01/14 16:47:29;;;;;;;6.50;2.92;;;;;;;-0.29;73.24;98642.63;10211498;29;20508;-72
2022/01/14 16:52:30;;;;;;;5.35;2.80;;;;;;;1.14;73.16;98861.88;10195055;29;20056;-73
2022/01/14 16:57:31;;;;;;;5.80;2.58;;;;;;;1.17;72.66;98853.75;10205205;29;20058;-72
2022/01/14 17:02:31;;;;;;;4.00;2.30;;;;;;;0.26;72.37;98688.06;10212178;29;20126;-70
2022/01/14 17:07:32;;;;;;;7.30;2.75;;;;;;;0.78;72.68;98774.63;10211548;29;20122;-73
2022/01/14 17:12:36;;;;;;;6.05;2.70;;;;;;;1.06;72.61;98839.06;10212145;29;20059;-72
2022/01/14 17:17:37;;;;;;;5.93;2.80;;;;;;;0.54;72.48;98739.41;10214631;29;20055;-70
2022/01/14 17:22:38;;;;;;;5.45;2.80;;;;;;;0.79;72.90;98773.69;10217428;29;20048;-72
2022/01/14 17:27:40;;;;;;;7.80;2.67;;;;;;;0.72;72.65;98783.03;10218233;29;20448;-71
2022/01/14 17:32:41;;;;;;;9.25;3.03;;;;;;;0.79;73.19;98794.59;10216798;29;20032;-71
2022/01/14 17:37:42;;;;;;;6.70;3.10;;;;;;;0.71;73.17;98781.41;10216350;29;20047;-72
2022/01/14 17:42:44;;;;;;;8.02;2.97;;;;;;;0.31;73.36;98723.25;10217966;29;20078;-70
2022/01/14 17:47:45;;;;;;;5.97;2.47;;;;;;;0.29;73.68;98726.97;10218364;29;20036;-73
2022/01/14 17:52:46;;;;;;;7.35;2.50;;;;;;;0.39;74.02;98719.91;10217185;29;20043;-73
2022/01/14 17:57:48;;;;;;;7.82;2.60;;;;;;;0.55;73.76;98733.19;10216679;29;20047;-72
2022/01/14 18:02:51;;;;;;;4.25;2.00;;;;;;;0.07;74.21;98636.75;10216989;29;20035;-73
2022/01/14 18:07:53;;;;;;;5.20;1.92;;;;;;;0.57;74.20;98706.91;10217202;29;20198;-71
2022/01/14 18:17:55;;;;;;;2.33;1.30;;;;;;;0.44;73.89;98671.50;10195947;29;20111;-70
2022/01/14 18:22:56;;;;;;;4.53;1.58;;;;;;;0.73;73.91;98686.22;10149836;29;20493;-72
2022/01/14 18:27:57;;;;;;;3.97;1.10;;;;;;;0.60;73.52;98636.06;10170032;29;20044;-75
2022/01/14 18:32:58;;;;;;;4.80;1.00;;;;;;;-0.05;73.26;98522.06;10171736;29;20142;-72
2022/01/14 18:37:59;;;;;;;2.13;0.90;;;;;;;0.83;72.78;98639.09;10179936;29;20054;-72
2022/01/14 18:43:00;;;;;;;2.47;0.93;;;;;;;1.06;72.93;98658.63;10174818;29;20593;-72
2022/01/14 18:48:01;;;;;;;2.90;0.85;;;;;;;1.01;72.74;98620.81;10175509;29;20036;-73
2022/01/14 18:53:02;;;;;;;2.35;0.60;;;;;;;1.07;72.51;98628.88;10174363;29;20044;-73
2022/01/14 18:58:03;;;;;;;1.92;0.70;;;;;;;0.11;72.47;98482.25;10173655;29;20032;-73
2022/01/14 19:03:04;;;;;;;2.78;1.00;;;;;;;0.99;72.29;98622.75;10197798;29;20055;-73
2022/01/14 19:08:06;;;;;;;10.57;3.60;;;;;;;0.87;73.31;98594.22;10197309;29;20130;-73
2022/01/14 19:13:07;;;;;;;4.72;1.30;;;;;;;1.17;72.47;98601.81;10215678;29;20078;-73
2022/01/14 19:18:08;;;;;;;1.92;1.00;;;;;;;0.86;71.67;98518.56;10214321;29;20055;-73
2022/01/14 19:23:09;;;;;;;2.45;1.02;;;;;;;0.39;71.73;98449.09;10213519;29;20048;-73
2022/01/14 19:28:10;;;;;;;2.30;1.00;;;;;;;1.25;71.83;98597.47;10199564;29;20047;-73
2022/01/14 19:33:11;;;;;;;3.97;1.30;;;;;;;0.34;72.00;98416.56;10209181;29;20055;-75
2022/01/14 19:38:12;;;;;;;2.40;1.00;;;;;;;0.01;71.23;98342.34;10214809;29;20051;-73
2022/01/14 19:43:13;;;;;;;1.77;0.82;;;;;;;0.65;71.35;98456.97;10213118;29;20123;-73
2022/01/14 19:48:14;;;;;;;1.83;0.65;;;;;;;1.47;71.76;98580.50;10213901;29;20544;-73
2022/01/14 19:53:14;;;;;;;2.08;0.80;;;;;;;1.03;71.28;98530.78;10211901;29;20039;-73
2022/01/14 19:58:17;;;;;;;4.97;1.13;;;;;;;1.18;71.11;98564.25;10213350;29;20483;-73
2022/01/14 20:03:18;;;;;;;2.38;1.20;;;;;;;0.85;72.15;98543.06;10211954;29;20092;-73
2022/01/14 20:08:19;;;;;;;4.07;1.23;;;;;;;0.93;72.41;98547.53;10211831;29;20373;-73
2022/01/14 20:13:21;;;;;;;1.77;0.90;;;;;;;0.80;72.15;98519.97;10212473;29;20059;-73
2022/01/14 20:18:22;;;;;;;2.30;0.93;;;;;;;0.93;72.04;98524.00;10213292;29;20059;-73
2022/01/14 20:23:23;;;;;;;2.03;0.70;;;;;;;0.87;72.13;98526.25;10212718;29;20058;-73
2022/01/14 20:28:25;;;;;;;2.50;0.82;;;;;;;-0.13;72.53;98354.94;10212548;29;20055;-73
2022/01/14 20:33:27;;;;;;;2.08;0.80;;;;;;;0.81;72.47;98505.97;10211990;29;20047;-73
2022/01/14 20:38:28;;;;;;;3.17;1.00;;;;;;;0.69;72.29;98478.41;10211138;29;20059;-74
2022/01/14 20:43:39;;;;;;;3.00;1.15;;;;;;;0.67;72.78;98468.09;10183350;29;20052;-73
2022/01/14 20:48:40;;;;;;;1.90;1.00;;;;;;;0.63;72.72;98438.03;10169034;29;20051;-73
2022/01/14 20:53:40;;;;;;;5.10;1.52;;;;;;;0.48;72.75;98421.25;10150003;29;20383;-73
2022/01/14 20:58:41;;;;;;;3.10;0.93;;;;;;;0.74;73.35;98455.25;10167582;29;20040;-73
2022/01/14 21:03:42;;;;;;;3.22;1.00;;;;;;;0.79;73.01;98445.16;10185780;29;20071;-74
2022/01/14 21:08:43;;;;;;;3.15;1.55;;;;;;;0.51;73.13;98391.38;10185251;29;20040;-74
2022/01/14 21:13:44;;;;;;;3.05;1.38;;;;;;;0.79;73.39;98428.66;10184964;29;20044;-73
2022/01/14 21:18:45;;;;;;;5.00;1.30;;;;;;;0.54;73.42;98399.75;10183630;29;20055;-73
2022/01/14 21:23:45;;;;;;;3.40;1.48;;;;;;;-0.31;73.71;98241.91;10183444;29;20044;-74
2022/01/14 21:28:46;;;;;;;2.83;1.30;;;;;;;0.71;73.46;98405.06;10185633;29;20052;-73
2022/01/14 21:33:49;;;;;;;6.93;1.48;;;;;;;0.40;73.58;98351.47;10173133;29;20052;-73
2022/01/14 21:38:53;;;;;;;3.10;1.20;;;;;;;0.73;73.61;98406.56;10144604;29;20080;-73
2022/01/14 21:43:55;;;;;;;2.50;1.23;;;;;;;0.72;73.79;98391.88;10142937;29;20040;-74
2022/01/14 21:48:56;;;;;;;3.28;1.15;;;;;;;0.03;73.75;98264.69;10144203;29;20049;-74
2022/01/14 21:53:56;;;;;;;2.83;1.33;;;;;;;0.06;73.46;98269.59;10143348;29;20556;-73
2022/01/14 21:58:59;;;;;;;3.20;1.30;;;;;;;0.60;74.10;98354.72;10144498;29;20055;-75
2022/01/14 22:04:00;;;;;;;4.93;1.25;;;;;;;0.77;74.45;98363.47;10139787;29;20048;-73
2022/01/14 22:09:01;;;;;;;2.83;1.30;;;;;;;0.79;74.60;98353.69;10137369;29;20052;-73
2022/01/14 22:14:09;;;;;;;2.63;0.95;;;;;;;0.83;74.29;98346.34;10137727;29;20046;-73
2022/01/14 22:19:10;;;;;;;2.53;1.00;;;;;;;0.56;75.05;98290.66;10136977;29;20513;-73
2022/01/14 22:24:11;;;;;;;1.88;0.60;;;;;;;0.91;75.26;98333.31;10136572;29;20044;-73
2022/01/14 22:29:12;;;;;;;1.75;0.77;;;;;;;0.79;75.00;98301.41;10137994;29;20096;-73
2022/01/14 22:34:13;;;;;;;5.78;1.00;;;;;;;0.99;75.27;98315.06;10137149;29;20557;-75
2022/01/14 22:39:13;;;;;;;2.00;0.80;;;;;;;1.03;75.39;98310.34;10137431;29;20040;-73
2022/01/14 22:44:15;;;;;;;1.92;0.63;;;;;;;0.86;75.20;98285.91;10137431;29;20049;-73
2022/01/14 22:49:22;;;;;;;3.17;0.88;;;;;;;0.94;75.50;98285.16;10137914;29;20044;-73
2022/01/14 22:54:22;;;;;;;2.28;0.77;;;;;;;0.67;75.94;98253.00;10137459;29;20048;-73
2022/01/14 22:59:23;;;;;;;2.60;0.82;;;;;;;1.02;75.80;98313.94;10137230;29;20060;-73
2022/01/14 23:04:25;;;;;;;2.90;0.90;;;;;;;0.98;76.25;98312.59;10136183;29;20124;-74
2022/01/14 23:09:27;;;;;;;2.45;1.08;;;;;;;0.89;76.38;98312.56;10136525;29;20497;-74
2022/01/14 23:14:27;;;;;;;3.35;1.02;;;;;;;0.34;76.28;98218.88;10136221;29;20410;-73
2022/01/14 23:19:28;;;;;;;2.05;0.65;;;;;;;-0.02;77.16;98158.13;10136242;29;20052;-75
2022/01/14 23:24:29;;;;;;;2.42;0.80;;;;;;;0.80;76.52;98305.66;10136429;29;20068;-73
2022/01/14 23:29:30;;;;;;;2.28;0.82;;;;;;;-0.07;77.29;98161.19;10136350;29;20108;-73
2022/01/14 23:34:31;;;;;;;2.42;0.98;;;;;;;0.54;77.38;98261.28;10136307;29;20068;-73
2022/01/14 23:39:32;;;;;;;1.85;0.80;;;;;;;0.68;77.64;98280.75;10136009;29;20083;-74
2022/01/14 23:44:41;;;;;;;5.03;0.90;;;;;;;-0.09;77.49;98152.72;10136218;29;20048;-74
2022/01/14 23:49:42;;;;;;;2.88;0.90;;;;;;;0.75;78.13;98276.56;10134931;29;20442;-73
2022/01/14 23:54:43;;;;;;;3.30;0.95;;;;;;;0.64;77.95;98279.44;10135349;29;20055;-73
2022/01/14 23:59:44;;;;;;;2.65;0.93;;;;;;;0.71;78.27;98279.63;10135220;29;20072;-73
